sensor_id;sensor_type;location;lat;lon;timestamp;P1;durP1;ratioP1;P2;durP2;ratioP2
75400;SDS011;63974;47.538;18.972;2023-03-01T00:02:05;31.27;;;10.52;;
75400;SDS011;63974;47.538;18.972;2023-03-01T00:05:09;27.00;;;10.73;;
75400;SDS011;63974;47.538;18.972;2023-03-01T00:08:12;29.75;;;11.32;;
75400;SDS011;63974;47.538;18.972;2023-03-01T00:11:16;28.17;;;11.57;;
75400;SDS011;63974;47.538;18.972;2023-03-01T00:14:23;25.35;;;9.65;;
75400;SDS011;63974;47.538;18.972;2023-03-01T00:17:27;28.65;;;10.68;;
75400;SDS011;63974;47.538;18.972;2023-03-01T00:20:31;33.25;;;11.98;;
75400;SDS011;63974;47.538;18.972;2023-03-01T00:23:34;29.25;;;11.85;;
75400;SDS011;63974;47.538;18.972;2023-03-01T00:26:38;29.20;;;11.30;;
75400;SDS011;63974;47.538;18.972;2023-03-01T00:29:42;25.17;;;9.50;;
75400;SDS011;63974;47.538;18.972;2023-03-01T00:32:45;31.08;;;11.30;;
75400;SDS011;63974;47.538;18.972;2023-03-01T00:35:47;27.45;;;10.48;;
75400;SDS011;63974;47.538;18.972;2023-03-01T00:38:51;26.45;;;10.57;;
75400;SDS011;63974;47.538;18.972;2023-03-01T00:41:54;32.37;;;11.30;;
75400;SDS011;63974;47.538;18.972;2023-03-01T00:44:58;26.20;;;10.63;;
75400;SDS011;63974;47.538;18.972;2023-03-01T00:48:01;32.35;;;12.13;;
75400;SDS011;63974;47.538;18.972;2023-03-01T00:51:08;32.17;;;12.02;;
75400;SDS011;63974;47.538;18.972;2023-03-01T00:54:16;29.88;;;11.13;;
75400;SDS011;63974;47.538;18.972;2023-03-01T00:57:19;24.53;;;10.00;;
75400;SDS011;63974;47.538;18.972;2023-03-01T01:00:21;30.70;;;11.52;;
75400;SDS011;63974;47.538;18.972;2023-03-01T01:03:24;27.10;;;11.45;;
75400;SDS011;63974;47.538;18.972;2023-03-01T01:06:32;24.30;;;10.27;;
75400;SDS011;63974;47.538;18.972;2023-03-01T01:09:37;29.27;;;13.73;;
75400;SDS011;63974;47.538;18.972;2023-03-01T01:12:40;32.20;;;11.93;;
75400;SDS011;63974;47.538;18.972;2023-03-01T01:15:43;26.45;;;10.88;;
75400;SDS011;63974;47.538;18.972;2023-03-01T01:18:45;25.85;;;11.18;;
75400;SDS011;63974;47.538;18.972;2023-03-01T01:21:49;30.27;;;11.98;;
75400;SDS011;63974;47.538;18.972;2023-03-01T01:24:53;27.67;;;10.90;;
75400;SDS011;63974;47.538;18.972;2023-03-01T01:27:56;26.37;;;11.30;;
75400;SDS011;63974;47.538;18.972;2023-03-01T01:30:59;28.17;;;11.02;;
75400;SDS011;63974;47.538;18.972;2023-03-01T01:34:03;31.60;;;11.82;;
75400;SDS011;63974;47.538;18.972;2023-03-01T01:37:07;29.23;;;11.63;;
75400;SDS011;63974;47.538;18.972;2023-03-01T01:40:10;31.80;;;13.40;;
75400;SDS011;63974;47.538;18.972;2023-03-01T01:43:16;28.30;;;11.77;;
75400;SDS011;63974;47.538;18.972;2023-03-01T01:46:27;29.88;;;10.70;;
75400;SDS011;63974;47.538;18.972;2023-03-01T01:49:44;25.30;;;10.32;;
75400;SDS011;63974;47.538;18.972;2023-03-01T01:52:51;28.17;;;11.23;;
75400;SDS011;63974;47.538;18.972;2023-03-01T01:55:56;30.95;;;11.48;;
75400;SDS011;63974;47.538;18.972;2023-03-01T01:59:02;28.20;;;10.93;;
75400;SDS011;63974;47.538;18.972;2023-03-01T02:02:06;25.15;;;10.95;;
75400;SDS011;63974;47.538;18.972;2023-03-01T02:05:10;28.77;;;11.68;;
75400;SDS011;63974;47.538;18.972;2023-03-01T02:08:21;26.10;;;11.38;;
75400;SDS011;63974;47.538;18.972;2023-03-01T02:11:27;29.75;;;12.32;;
75400;SDS011;63974;47.538;18.972;2023-03-01T02:14:32;29.57;;;11.30;;
75400;SDS011;63974;47.538;18.972;2023-03-01T02:17:35;28.98;;;11.70;;
75400;SDS011;63974;47.538;18.972;2023-03-01T02:24:32;28.40;;;11.15;;
75400;SDS011;63974;47.538;18.972;2023-03-01T02:28:31;25.73;;;12.13;;
75400;SDS011;63974;47.538;18.972;2023-03-01T02:31:19;27.13;;;10.70;;
75400;SDS011;63974;47.538;18.972;2023-03-01T02:34:41;25.90;;;11.00;;
75400;SDS011;63974;47.538;18.972;2023-03-01T02:37:45;26.23;;;12.02;;
75400;SDS011;63974;47.538;18.972;2023-03-01T02:40:50;27.45;;;11.60;;
75400;SDS011;63974;47.538;18.972;2023-03-01T02:43:55;27.05;;;11.40;;
75400;SDS011;63974;47.538;18.972;2023-03-01T02:47:01;24.13;;;10.83;;
75400;SDS011;63974;47.538;18.972;2023-03-01T02:50:11;29.52;;;11.32;;
75400;SDS011;63974;47.538;18.972;2023-03-01T02:56:52;27.67;;;10.77;;
75400;SDS011;63974;47.538;18.972;2023-03-01T02:59:57;27.67;;;12.13;;
75400;SDS011;63974;47.538;18.972;2023-03-01T03:03:13;26.03;;;10.83;;
75400;SDS011;63974;47.538;18.972;2023-03-01T03:06:18;32.65;;;11.35;;
75400;SDS011;63974;47.538;18.972;2023-03-01T03:09:22;27.83;;;10.43;;
75400;SDS011;63974;47.538;18.972;2023-03-01T03:12:25;27.85;;;10.73;;
75400;SDS011;63974;47.538;18.972;2023-03-01T03:15:28;26.27;;;10.68;;
75400;SDS011;63974;47.538;18.972;2023-03-01T03:18:31;25.40;;;10.03;;
75400;SDS011;63974;47.538;18.972;2023-03-01T03:21:34;25.13;;;10.77;;
75400;SDS011;63974;47.538;18.972;2023-03-01T03:24:38;28.30;;;11.20;;
75400;SDS011;63974;47.538;18.972;2023-03-01T03:27:41;25.27;;;11.27;;
75400;SDS011;63974;47.538;18.972;2023-03-01T03:30:48;28.17;;;11.35;;
75400;SDS011;63974;47.538;18.972;2023-03-01T03:33:51;28.73;;;12.17;;
75400;SDS011;63974;47.538;18.972;2023-03-01T03:36:55;28.60;;;10.98;;
75400;SDS011;63974;47.538;18.972;2023-03-01T03:40:04;28.65;;;10.60;;
75400;SDS011;63974;47.538;18.972;2023-03-01T03:43:19;36.15;;;14.00;;
75400;SDS011;63974;47.538;18.972;2023-03-01T03:46:24;37.17;;;13.02;;
75400;SDS011;63974;47.538;18.972;2023-03-01T03:49:27;29.43;;;10.53;;
75400;SDS011;63974;47.538;18.972;2023-03-01T03:52:30;24.02;;;10.25;;
75400;SDS011;63974;47.538;18.972;2023-03-01T03:55:33;29.38;;;10.00;;
75400;SDS011;63974;47.538;18.972;2023-03-01T03:58:37;31.60;;;10.95;;
75400;SDS011;63974;47.538;18.972;2023-03-01T04:01:40;26.30;;;10.07;;
75400;SDS011;63974;47.538;18.972;2023-03-01T04:04:43;30.43;;;10.67;;
75400;SDS011;63974;47.538;18.972;2023-03-01T04:07:46;23.65;;;9.88;;
75400;SDS011;63974;47.538;18.972;2023-03-01T04:10:50;24.05;;;10.25;;
75400;SDS011;63974;47.538;18.972;2023-03-01T04:13:55;22.50;;;9.98;;
75400;SDS011;63974;47.538;18.972;2023-03-01T04:17:00;23.95;;;10.85;;
75400;SDS011;63974;47.538;18.972;2023-03-01T04:20:03;28.17;;;11.90;;
75400;SDS011;63974;47.538;18.972;2023-03-01T04:23:12;34.10;;;13.10;;
75400;SDS011;63974;47.538;18.972;2023-03-01T04:26:19;29.75;;;12.30;;
75400;SDS011;63974;47.538;18.972;2023-03-01T04:29:22;33.25;;;12.68;;
75400;SDS011;63974;47.538;18.972;2023-03-01T04:32:25;32.90;;;13.40;;
75400;SDS011;63974;47.538;18.972;2023-03-01T04:35:28;36.67;;;13.43;;
75400;SDS011;63974;47.538;18.972;2023-03-01T04:38:32;32.20;;;11.45;;
75400;SDS011;63974;47.538;18.972;2023-03-01T04:41:36;32.40;;;12.55;;
75400;SDS011;63974;47.538;18.972;2023-03-01T04:44:38;35.33;;;12.55;;
75400;SDS011;63974;47.538;18.972;2023-03-01T04:47:42;34.60;;;12.48;;
75400;SDS011;63974;47.538;18.972;2023-03-01T04:50:48;25.33;;;9.97;;
75400;SDS011;63974;47.538;18.972;2023-03-01T04:53:50;30.45;;;10.45;;
75400;SDS011;63974;47.538;18.972;2023-03-01T04:56:54;35.10;;;12.98;;
75400;SDS011;63974;47.538;18.972;2023-03-01T04:59:57;34.10;;;13.10;;
75400;SDS011;63974;47.538;18.972;2023-03-01T05:03:00;31.35;;;11.48;;
75400;SDS011;63974;47.538;18.972;2023-03-01T05:06:03;30.67;;;11.83;;
75400;SDS011;63974;47.538;18.972;2023-03-01T05:09:06;30.85;;;13.20;;
75400;SDS011;63974;47.538;18.972;2023-03-01T05:12:09;31.73;;;13.18;;
75400;SDS011;63974;47.538;18.972;2023-03-01T05:15:12;30.65;;;12.55;;
75400;SDS011;63974;47.538;18.972;2023-03-01T05:18:15;25.70;;;11.00;;
75400;SDS011;63974;47.538;18.972;2023-03-01T05:21:18;32.77;;;13.27;;
75400;SDS011;63974;47.538;18.972;2023-03-01T05:24:20;35.10;;;13.23;;
75400;SDS011;63974;47.538;18.972;2023-03-01T05:27:24;28.02;;;12.05;;
75400;SDS011;63974;47.538;18.972;2023-03-01T05:30:28;31.50;;;12.00;;
75400;SDS011;63974;47.538;18.972;2023-03-01T05:33:31;32.03;;;13.25;;
75400;SDS011;63974;47.538;18.972;2023-03-01T05:36:33;35.07;;;13.93;;
75400;SDS011;63974;47.538;18.972;2023-03-01T05:39:36;30.35;;;12.82;;
75400;SDS011;63974;47.538;18.972;2023-03-01T05:42:39;30.30;;;12.48;;
75400;SDS011;63974;47.538;18.972;2023-03-01T05:45:42;33.30;;;13.55;;
75400;SDS011;63974;47.538;18.972;2023-03-01T05:48:45;32.22;;;13.20;;
75400;SDS011;63974;47.538;18.972;2023-03-01T05:51:49;31.13;;;13.47;;
75400;SDS011;63974;47.538;18.972;2023-03-01T05:54:54;29.58;;;12.25;;
75400;SDS011;63974;47.538;18.972;2023-03-01T05:57:58;34.72;;;14.85;;
75400;SDS011;63974;47.538;18.972;2023-03-01T06:01:03;31.27;;;14.23;;
75400;SDS011;63974;47.538;18.972;2023-03-01T06:04:06;31.58;;;13.32;;
75400;SDS011;63974;47.538;18.972;2023-03-01T06:07:09;26.43;;;12.13;;
75400;SDS011;63974;47.538;18.972;2023-03-01T06:10:12;36.72;;;14.07;;
75400;SDS011;63974;47.538;18.972;2023-03-01T06:13:15;28.52;;;12.15;;
75400;SDS011;63974;47.538;18.972;2023-03-01T06:16:18;32.78;;;12.63;;
75400;SDS011;63974;47.538;18.972;2023-03-01T06:19:21;30.20;;;12.25;;
75400;SDS011;63974;47.538;18.972;2023-03-01T06:22:24;31.87;;;13.10;;
75400;SDS011;63974;47.538;18.972;2023-03-01T06:25:27;31.02;;;13.30;;
75400;SDS011;63974;47.538;18.972;2023-03-01T06:28:30;31.27;;;12.48;;
75400;SDS011;63974;47.538;18.972;2023-03-01T06:31:33;33.42;;;13.02;;
75400;SDS011;63974;47.538;18.972;2023-03-01T06:34:35;30.95;;;12.77;;
75400;SDS011;63974;47.538;18.972;2023-03-01T06:37:39;28.37;;;12.40;;
75400;SDS011;63974;47.538;18.972;2023-03-01T06:40:44;32.90;;;12.82;;
75400;SDS011;63974;47.538;18.972;2023-03-01T06:43:47;33.40;;;12.32;;
75400;SDS011;63974;47.538;18.972;2023-03-01T06:46:50;29.95;;;13.00;;
75400;SDS011;63974;47.538;18.972;2023-03-01T06:49:53;29.15;;;12.55;;
75400;SDS011;63974;47.538;18.972;2023-03-01T06:52:56;33.47;;;13.27;;
75400;SDS011;63974;47.538;18.972;2023-03-01T06:55:59;28.85;;;12.15;;
75400;SDS011;63974;47.538;18.972;2023-03-01T06:59:02;27.55;;;12.02;;
75400;SDS011;63974;47.538;18.972;2023-03-01T07:02:06;34.20;;;14.07;;
75400;SDS011;63974;47.538;18.972;2023-03-01T07:05:09;31.98;;;14.32;;
75400;SDS011;63974;47.538;18.972;2023-03-01T07:08:13;32.47;;;12.67;;
75400;SDS011;63974;47.538;18.972;2023-03-01T07:11:18;30.08;;;13.43;;
75400;SDS011;63974;47.538;18.972;2023-03-01T07:14:21;31.55;;;13.77;;
75400;SDS011;63974;47.538;18.972;2023-03-01T07:17:26;30.30;;;13.05;;
75400;SDS011;63974;47.538;18.972;2023-03-01T07:20:29;33.60;;;13.90;;
75400;SDS011;63974;47.538;18.972;2023-03-01T07:23:32;28.43;;;12.17;;
75400;SDS011;63974;47.538;18.972;2023-03-01T07:26:35;31.67;;;13.00;;
75400;SDS011;63974;47.538;18.972;2023-03-01T07:29:38;28.85;;;12.77;;
75400;SDS011;63974;47.538;18.972;2023-03-01T07:32:41;32.03;;;13.02;;
75400;SDS011;63974;47.538;18.972;2023-03-01T07:35:44;26.27;;;12.77;;
75400;SDS011;63974;47.538;18.972;2023-03-01T07:38:47;36.17;;;15.03;;
75400;SDS011;63974;47.538;18.972;2023-03-01T07:41:50;32.22;;;13.60;;
75400;SDS011;63974;47.538;18.972;2023-03-01T07:44:56;33.97;;;14.13;;
75400;SDS011;63974;47.538;18.972;2023-03-01T07:47:59;29.85;;;12.35;;
75400;SDS011;63974;47.538;18.972;2023-03-01T07:51:03;29.05;;;13.27;;
75400;SDS011;63974;47.538;18.972;2023-03-01T07:54:07;36.47;;;14.73;;
75400;SDS011;63974;47.538;18.972;2023-03-01T07:57:10;31.27;;;14.10;;
75400;SDS011;63974;47.538;18.972;2023-03-01T08:00:13;28.05;;;12.18;;
75400;SDS011;63974;47.538;18.972;2023-03-01T08:03:21;33.10;;;14.15;;
75400;SDS011;63974;47.538;18.972;2023-03-01T08:06:23;27.02;;;12.98;;
75400;SDS011;63974;47.538;18.972;2023-03-01T08:09:26;26.53;;;12.40;;
75400;SDS011;63974;47.538;18.972;2023-03-01T08:12:29;30.88;;;12.70;;
75400;SDS011;63974;47.538;18.972;2023-03-01T08:15:32;30.98;;;14.18;;
75400;SDS011;63974;47.538;18.972;2023-03-01T08:18:35;24.73;;;12.02;;
75400;SDS011;63974;47.538;18.972;2023-03-01T08:21:38;28.27;;;12.32;;
75400;SDS011;63974;47.538;18.972;2023-03-01T08:24:41;29.67;;;13.10;;
75400;SDS011;63974;47.538;18.972;2023-03-01T08:27:43;26.35;;;12.50;;
75400;SDS011;63974;47.538;18.972;2023-03-01T08:30:46;31.52;;;13.25;;
75400;SDS011;63974;47.538;18.972;2023-03-01T08:33:50;30.92;;;13.63;;
75400;SDS011;63974;47.538;18.972;2023-03-01T08:36:57;29.50;;;12.15;;
75400;SDS011;63974;47.538;18.972;2023-03-01T08:40:01;36.80;;;14.47;;
75400;SDS011;63974;47.538;18.972;2023-03-01T08:43:06;27.52;;;12.23;;
75400;SDS011;63974;47.538;18.972;2023-03-01T08:46:10;32.20;;;14.00;;
75400;SDS011;63974;47.538;18.972;2023-03-01T08:49:17;28.92;;;12.18;;
75400;SDS011;63974;47.538;18.972;2023-03-01T08:52:21;30.42;;;13.77;;
75400;SDS011;63974;47.538;18.972;2023-03-01T08:55:24;28.27;;;11.43;;
75400;SDS011;63974;47.538;18.972;2023-03-01T08:58:28;28.17;;;11.40;;
75400;SDS011;63974;47.538;18.972;2023-03-01T09:01:31;29.92;;;13.10;;
75400;SDS011;63974;47.538;18.972;2023-03-01T09:04:34;24.58;;;12.80;;
75400;SDS011;63974;47.538;18.972;2023-03-01T09:07:37;28.38;;;13.25;;
75400;SDS011;63974;47.538;18.972;2023-03-01T09:10:39;30.73;;;12.57;;
75400;SDS011;63974;47.538;18.972;2023-03-01T09:13:43;28.50;;;12.73;;
75400;SDS011;63974;47.538;18.972;2023-03-01T09:16:47;30.88;;;12.65;;
75400;SDS011;63974;47.538;18.972;2023-03-01T09:19:50;23.45;;;11.02;;
75400;SDS011;63974;47.538;18.972;2023-03-01T09:22:53;27.40;;;12.73;;
75400;SDS011;63974;47.538;18.972;2023-03-01T09:25:55;25.57;;;10.90;;
75400;SDS011;63974;47.538;18.972;2023-03-01T09:28:58;25.13;;;11.55;;
75400;SDS011;63974;47.538;18.972;2023-03-01T09:32:02;24.25;;;12.15;;
75400;SDS011;63974;47.538;18.972;2023-03-01T09:35:05;26.00;;;11.20;;
75400;SDS011;63974;47.538;18.972;2023-03-01T09:38:08;25.23;;;12.45;;
75400;SDS011;63974;47.538;18.972;2023-03-01T09:44:38;24.15;;;11.32;;
75400;SDS011;63974;47.538;18.972;2023-03-01T09:47:45;21.08;;;10.85;;
75400;SDS011;63974;47.538;18.972;2023-03-01T09:50:49;22.42;;;10.40;;
75400;SDS011;63974;47.538;18.972;2023-03-01T09:53:53;28.50;;;12.45;;
75400;SDS011;63974;47.538;18.972;2023-03-01T09:57:06;25.83;;;11.10;;
75400;SDS011;63974;47.538;18.972;2023-03-01T10:10:34;25.40;;;11.27;;
75400;SDS011;63974;47.538;18.972;2023-03-01T10:17:27;21.65;;;10.88;;
75400;SDS011;63974;47.538;18.972;2023-03-01T10:20:46;18.63;;;10.10;;
75400;SDS011;63974;47.538;18.972;2023-03-01T10:23:50;23.38;;;10.05;;
75400;SDS011;63974;47.538;18.972;2023-03-01T10:26:56;22.17;;;9.65;;
75400;SDS011;63974;47.538;18.972;2023-03-01T10:30:22;23.70;;;10.73;;
75400;SDS011;63974;47.538;18.972;2023-03-01T10:33:43;24.30;;;9.35;;
75400;SDS011;63974;47.538;18.972;2023-03-01T10:36:48;21.23;;;9.80;;
75400;SDS011;63974;47.538;18.972;2023-03-01T10:40:08;23.48;;;11.10;;
75400;SDS011;63974;47.538;18.972;2023-03-01T10:43:12;25.20;;;11.07;;
75400;SDS011;63974;47.538;18.972;2023-03-01T10:49:30;24.77;;;9.50;;
75400;SDS011;63974;47.538;18.972;2023-03-01T10:52:40;19.08;;;9.15;;
75400;SDS011;63974;47.538;18.972;2023-03-01T10:55:43;21.20;;;9.27;;
75400;SDS011;63974;47.538;18.972;2023-03-01T10:59:03;19.08;;;10.13;;
75400;SDS011;63974;47.538;18.972;2023-03-01T11:05:26;25.08;;;12.20;;
75400;SDS011;63974;47.538;18.972;2023-03-01T11:08:53;22.73;;;9.65;;
75400;SDS011;63974;47.538;18.972;2023-03-01T11:11:58;20.48;;;10.02;;
75400;SDS011;63974;47.538;18.972;2023-03-01T11:15:03;23.85;;;10.38;;
75400;SDS011;63974;47.538;18.972;2023-03-01T11:18:17;21.93;;;10.43;;
75400;SDS011;63974;47.538;18.972;2023-03-01T11:21:24;19.08;;;10.38;;
75400;SDS011;63974;47.538;18.972;2023-03-01T11:24:39;16.95;;;10.45;;
75400;SDS011;63974;47.538;18.972;2023-03-01T11:27:44;22.85;;;11.55;;
75400;SDS011;63974;47.538;18.972;2023-03-01T11:31:02;21.10;;;10.75;;
75400;SDS011;63974;47.538;18.972;2023-03-01T11:34:20;23.43;;;10.37;;
75400;SDS011;63974;47.538;18.972;2023-03-01T11:44:18;17.77;;;8.77;;
75400;SDS011;63974;47.538;18.972;2023-03-01T11:51:08;16.90;;;8.80;;
75400;SDS011;63974;47.538;18.972;2023-03-01T12:01:13;18.30;;;8.82;;
75400;SDS011;63974;47.538;18.972;2023-03-01T12:04:30;19.17;;;9.45;;
75400;SDS011;63974;47.538;18.972;2023-03-01T12:24:23;17.50;;;8.73;;
75400;SDS011;63974;47.538;18.972;2023-03-01T12:38:08;19.17;;;9.43;;
75400;SDS011;63974;47.538;18.972;2023-03-01T12:45:16;17.58;;;9.20;;
75400;SDS011;63974;47.538;18.972;2023-03-01T12:51:44;22.45;;;9.70;;
75400;SDS011;63974;47.538;18.972;2023-03-01T12:54:58;22.27;;;9.77;;
75400;SDS011;63974;47.538;18.972;2023-03-01T12:58:13;19.47;;;9.43;;
75400;SDS011;63974;47.538;18.972;2023-03-01T13:11:23;16.60;;;8.00;;
75400;SDS011;63974;47.538;18.972;2023-03-01T13:17:30;15.90;;;8.13;;
75400;SDS011;63974;47.538;18.972;2023-03-01T13:20:46;21.48;;;9.60;;
75400;SDS011;63974;47.538;18.972;2023-03-01T13:23:51;18.33;;;8.57;;
75400;SDS011;63974;47.538;18.972;2023-03-01T13:33:41;19.13;;;8.85;;
75400;SDS011;63974;47.538;18.972;2023-03-01T13:36:49;16.20;;;7.97;;
75400;SDS011;63974;47.538;18.972;2023-03-01T13:39:52;17.70;;;8.07;;
75400;SDS011;63974;47.538;18.972;2023-03-01T13:42:55;19.73;;;9.00;;
75400;SDS011;63974;47.538;18.972;2023-03-01T13:46:08;16.57;;;8.30;;
75400;SDS011;63974;47.538;18.972;2023-03-01T13:49:16;16.45;;;7.65;;
75400;SDS011;63974;47.538;18.972;2023-03-01T13:55:46;19.30;;;8.45;;
75400;SDS011;63974;47.538;18.972;2023-03-01T14:02:21;18.17;;;9.03;;
75400;SDS011;63974;47.538;18.972;2023-03-01T14:05:25;20.50;;;8.75;;
75400;SDS011;63974;47.538;18.972;2023-03-01T14:08:30;17.98;;;8.77;;
75400;SDS011;63974;47.538;18.972;2023-03-01T14:11:35;18.67;;;8.48;;
75400;SDS011;63974;47.538;18.972;2023-03-01T14:14:52;18.23;;;8.65;;
75400;SDS011;63974;47.538;18.972;2023-03-01T14:17:59;20.70;;;8.90;;
75400;SDS011;63974;47.538;18.972;2023-03-01T14:21:17;20.08;;;8.68;;
75400;SDS011;63974;47.538;18.972;2023-03-01T14:24:21;18.83;;;8.98;;
75400;SDS011;63974;47.538;18.972;2023-03-01T14:27:30;18.88;;;8.25;;
75400;SDS011;63974;47.538;18.972;2023-03-01T14:30:41;18.27;;;9.02;;
75400;SDS011;63974;47.538;18.972;2023-03-01T14:33:46;17.50;;;8.43;;
75400;SDS011;63974;47.538;18.972;2023-03-01T14:37:09;19.42;;;8.70;;
75400;SDS011;63974;47.538;18.972;2023-03-01T14:40:34;18.20;;;9.15;;
75400;SDS011;63974;47.538;18.972;2023-03-01T14:43:39;16.90;;;7.90;;
75400;SDS011;63974;47.538;18.972;2023-03-01T14:46:50;16.67;;;7.93;;
75400;SDS011;63974;47.538;18.972;2023-03-01T14:49:57;17.03;;;7.87;;
75400;SDS011;63974;47.538;18.972;2023-03-01T14:53:05;16.80;;;7.95;;
75400;SDS011;63974;47.538;18.972;2023-03-01T14:56:14;18.38;;;7.75;;
75400;SDS011;63974;47.538;18.972;2023-03-01T14:59:21;15.18;;;7.25;;
75400;SDS011;63974;47.538;18.972;2023-03-01T15:02:26;15.90;;;8.35;;
75400;SDS011;63974;47.538;18.972;2023-03-01T15:05:31;16.80;;;7.97;;
75400;SDS011;63974;47.538;18.972;2023-03-01T15:08:35;17.38;;;8.00;;
75400;SDS011;63974;47.538;18.972;2023-03-01T15:11:43;15.77;;;6.60;;
75400;SDS011;63974;47.538;18.972;2023-03-01T15:14:47;16.30;;;7.32;;
75400;SDS011;63974;47.538;18.972;2023-03-01T15:24:26;15.35;;;7.10;;
75400;SDS011;63974;47.538;18.972;2023-03-01T15:27:31;16.20;;;7.43;;
75400;SDS011;63974;47.538;18.972;2023-03-01T15:30:34;16.17;;;7.53;;
75400;SDS011;63974;47.538;18.972;2023-03-01T15:33:40;14.35;;;7.32;;
75400;SDS011;63974;47.538;18.972;2023-03-01T15:36:50;15.80;;;7.53;;
75400;SDS011;63974;47.538;18.972;2023-03-01T15:39:55;14.63;;;6.90;;
75400;SDS011;63974;47.538;18.972;2023-03-01T15:43:00;18.27;;;8.23;;
75400;SDS011;63974;47.538;18.972;2023-03-01T15:46:05;20.40;;;8.38;;
75400;SDS011;63974;47.538;18.972;2023-03-01T15:49:35;17.95;;;8.45;;
75400;SDS011;63974;47.538;18.972;2023-03-01T15:52:57;16.87;;;7.97;;
75400;SDS011;63974;47.538;18.972;2023-03-01T15:56:01;18.67;;;8.48;;
75400;SDS011;63974;47.538;18.972;2023-03-01T15:59:04;17.13;;;7.72;;
75400;SDS011;63974;47.538;18.972;2023-03-01T16:02:09;16.73;;;7.15;;
75400;SDS011;63974;47.538;18.972;2023-03-01T16:05:19;17.48;;;8.38;;
75400;SDS011;63974;47.538;18.972;2023-03-01T16:08:24;14.23;;;7.77;;
75400;SDS011;63974;47.538;18.972;2023-03-01T16:11:27;16.80;;;7.45;;
75400;SDS011;63974;47.538;18.972;2023-03-01T16:14:31;17.60;;;8.35;;
75400;SDS011;63974;47.538;18.972;2023-03-01T16:17:34;16.00;;;7.82;;
75400;SDS011;63974;47.538;18.972;2023-03-01T16:20:39;18.65;;;8.65;;
75400;SDS011;63974;47.538;18.972;2023-03-01T16:23:43;17.03;;;8.37;;
75400;SDS011;63974;47.538;18.972;2023-03-01T16:26:46;17.52;;;8.80;;
75400;SDS011;63974;47.538;18.972;2023-03-01T16:29:49;18.85;;;8.50;;
75400;SDS011;63974;47.538;18.972;2023-03-01T16:32:52;18.17;;;9.65;;
75400;SDS011;63974;47.538;18.972;2023-03-01T16:35:55;18.00;;;9.80;;
75400;SDS011;63974;47.538;18.972;2023-03-01T16:38:59;18.50;;;9.33;;
75400;SDS011;63974;47.538;18.972;2023-03-01T16:42:05;17.92;;;8.40;;
75400;SDS011;63974;47.538;18.972;2023-03-01T16:45:08;16.27;;;7.95;;
75400;SDS011;63974;47.538;18.972;2023-03-01T16:48:25;17.38;;;8.73;;
75400;SDS011;63974;47.538;18.972;2023-03-01T16:51:28;19.67;;;8.68;;
75400;SDS011;63974;47.538;18.972;2023-03-01T16:54:33;18.23;;;8.50;;
75400;SDS011;63974;47.538;18.972;2023-03-01T16:57:37;20.00;;;9.07;;
75400;SDS011;63974;47.538;18.972;2023-03-01T17:00:42;22.00;;;9.70;;
75400;SDS011;63974;47.538;18.972;2023-03-01T17:03:46;20.50;;;9.40;;
75400;SDS011;63974;47.538;18.972;2023-03-01T17:06:51;18.00;;;8.52;;
75400;SDS011;63974;47.538;18.972;2023-03-01T17:09:54;23.43;;;9.57;;
75400;SDS011;63974;47.538;18.972;2023-03-01T17:12:57;21.38;;;8.70;;
75400;SDS011;63974;47.538;18.972;2023-03-01T17:16:02;27.00;;;10.77;;
75400;SDS011;63974;47.538;18.972;2023-03-01T17:19:06;30.48;;;11.75;;
75400;SDS011;63974;47.538;18.972;2023-03-01T17:22:10;28.65;;;11.75;;
75400;SDS011;63974;47.538;18.972;2023-03-01T17:25:15;25.53;;;11.10;;
75400;SDS011;63974;47.538;18.972;2023-03-01T17:28:18;28.02;;;13.80;;
75400;SDS011;63974;47.538;18.972;2023-03-01T17:31:23;29.25;;;11.70;;
75400;SDS011;63974;47.538;18.972;2023-03-01T17:34:26;24.63;;;10.50;;
75400;SDS011;63974;47.538;18.972;2023-03-01T17:37:29;21.95;;;9.98;;
75400;SDS011;63974;47.538;18.972;2023-03-01T17:40:33;21.03;;;9.30;;
75400;SDS011;63974;47.538;18.972;2023-03-01T17:43:37;25.08;;;9.65;;
75400;SDS011;63974;47.538;18.972;2023-03-01T17:46:40;22.65;;;9.10;;
75400;SDS011;63974;47.538;18.972;2023-03-01T17:49:43;22.05;;;9.23;;
75400;SDS011;63974;47.538;18.972;2023-03-01T17:52:46;18.50;;;9.48;;
75400;SDS011;63974;47.538;18.972;2023-03-01T17:55:57;23.57;;;9.67;;
75400;SDS011;63974;47.538;18.972;2023-03-01T17:59:02;21.02;;;8.38;;
75400;SDS011;63974;47.538;18.972;2023-03-01T18:02:06;22.45;;;9.70;;
75400;SDS011;63974;47.538;18.972;2023-03-01T18:05:09;20.88;;;9.43;;
75400;SDS011;63974;47.538;18.972;2023-03-01T18:08:13;18.10;;;7.80;;
75400;SDS011;63974;47.538;18.972;2023-03-01T18:11:16;19.73;;;8.37;;
75400;SDS011;63974;47.538;18.972;2023-03-01T18:14:20;18.20;;;8.88;;
75400;SDS011;63974;47.538;18.972;2023-03-01T18:17:24;19.83;;;8.98;;
75400;SDS011;63974;47.538;18.972;2023-03-01T18:20:27;20.05;;;9.18;;
75400;SDS011;63974;47.538;18.972;2023-03-01T18:23:32;19.90;;;8.70;;
75400;SDS011;63974;47.538;18.972;2023-03-01T18:26:36;17.47;;;8.77;;
75400;SDS011;63974;47.538;18.972;2023-03-01T18:29:41;22.60;;;8.98;;
75400;SDS011;63974;47.538;18.972;2023-03-01T18:32:44;18.02;;;8.60;;
75400;SDS011;63974;47.538;18.972;2023-03-01T18:35:48;17.95;;;8.30;;
75400;SDS011;63974;47.538;18.972;2023-03-01T18:38:51;19.70;;;9.05;;
75400;SDS011;63974;47.538;18.972;2023-03-01T18:41:57;18.60;;;8.73;;
75400;SDS011;63974;47.538;18.972;2023-03-01T18:45:00;14.57;;;7.82;;
75400;SDS011;63974;47.538;18.972;2023-03-01T18:48:05;15.32;;;7.85;;
75400;SDS011;63974;47.538;18.972;2023-03-01T18:51:15;13.18;;;6.10;;
75400;SDS011;63974;47.538;18.972;2023-03-01T18:54:20;17.17;;;7.75;;
75400;SDS011;63974;47.538;18.972;2023-03-01T18:57:23;13.93;;;6.67;;
75400;SDS011;63974;47.538;18.972;2023-03-01T19:00:27;16.58;;;7.22;;
75400;SDS011;63974;47.538;18.972;2023-03-01T19:03:30;15.63;;;6.60;;
75400;SDS011;63974;47.538;18.972;2023-03-01T19:06:33;14.50;;;7.22;;
75400;SDS011;63974;47.538;18.972;2023-03-01T19:09:38;18.13;;;7.68;;
75400;SDS011;63974;47.538;18.972;2023-03-01T19:12:41;13.57;;;6.30;;
75400;SDS011;63974;47.538;18.972;2023-03-01T19:15:45;12.25;;;6.85;;
75400;SDS011;63974;47.538;18.972;2023-03-01T19:18:48;14.35;;;7.07;;
75400;SDS011;63974;47.538;18.972;2023-03-01T19:21:54;15.63;;;6.82;;
75400;SDS011;63974;47.538;18.972;2023-03-01T19:25:07;15.15;;;6.97;;
75400;SDS011;63974;47.538;18.972;2023-03-01T19:28:12;12.97;;;6.47;;
75400;SDS011;63974;47.538;18.972;2023-03-01T19:31:16;14.55;;;6.55;;
75400;SDS011;63974;47.538;18.972;2023-03-01T19:34:29;15.00;;;6.85;;
75400;SDS011;63974;47.538;18.972;2023-03-01T19:37:33;12.40;;;5.82;;
75400;SDS011;63974;47.538;18.972;2023-03-01T19:40:36;15.35;;;7.30;;
75400;SDS011;63974;47.538;18.972;2023-03-01T19:43:40;17.83;;;7.57;;
75400;SDS011;63974;47.538;18.972;2023-03-01T19:46:44;14.40;;;6.80;;
75400;SDS011;63974;47.538;18.972;2023-03-01T19:49:47;14.93;;;7.70;;
75400;SDS011;63974;47.538;18.972;2023-03-01T19:52:50;16.50;;;7.35;;